createdAt,value
2022-09-28T00:02:46.564Z,104.41
2022-09-28T00:17:52.315Z,105.28
2022-09-28T00:32:57.816Z,105.79
2022-09-28T00:48:03.562Z,105.79
2022-09-28T01:03:10.174Z,104.41
2022-09-28T01:18:22.318Z,105.72
2022-09-28T01:33:32.946Z,105.43
2022-09-28T01:48:47.647Z,105.23
2022-09-28T02:03:57.430Z,106.85
2022-09-28T02:19:04.516Z,107.01
2022-09-28T02:34:10.878Z,107.61
2022-09-28T02:49:28.245Z,108.19
2022-09-28T03:04:41.276Z,108.06
2022-09-28T03:19:46.801Z,108.54
2022-09-28T03:34:52.395Z,109.08
2022-09-28T03:49:57.890Z,109.55
2022-09-28T04:05:03.525Z,109.88
2022-09-28T04:20:10.506Z,109.94
2022-09-28T04:35:16.382Z,110.04
2022-09-28T04:50:22.029Z,110.45
2022-09-28T05:05:27.770Z,110.52
2022-09-28T05:20:33.663Z,110.78
2022-09-28T05:35:39.759Z,111.25
2022-09-28T05:50:45.336Z,111.38
2022-09-28T06:05:50.949Z,111.41
2022-09-28T06:20:56.864Z,111.54
2022-09-28T06:36:03.045Z,111.85
2022-09-28T06:51:09.382Z,111.90
2022-09-28T07:06:15.225Z,110.71
2022-09-28T07:21:29.098Z,110.30
2022-09-28T07:36:36.712Z,110.33
2022-09-28T07:51:43.842Z,110.34
2022-09-28T08:06:49.564Z,110.42
2022-09-28T08:21:55.194Z,110.05
2022-09-28T08:37:00.921Z,110.19
2022-09-28T08:52:13.564Z,109.95
2022-09-28T09:07:55.913Z,109.84
2022-09-28T09:23:05.297Z,110.01
2022-09-28T09:38:27.376Z,109.26
2022-09-28T09:53:39.104Z,109.15
2022-09-28T10:08:48.966Z,108.98
2022-09-28T10:23:58.577Z,108.60
2022-09-28T10:39:06.339Z,108.56
2022-09-28T10:54:18.544Z,108.97
2022-09-28T11:09:31.200Z,108.20
2022-09-28T11:24:37.125Z,108.44
2022-09-28T11:39:52.033Z,108.44
2022-09-28T11:55:03.599Z,108.50
2022-09-28T12:10:16.211Z,108.19
2022-09-28T12:25:24.733Z,108.23
2022-09-28T12:40:39.555Z,108.78
2022-09-28T12:55:56.716Z,107.64
2022-09-28T13:11:16.088Z,107.70
2022-09-28T13:26:28.373Z,108.19
2022-09-28T13:41:35.041Z,107.30
2022-09-28T13:56:51.142Z,107.47
2022-09-28T14:12:02.062Z,107.86
2022-09-28T14:27:40.536Z,107.71
2022-09-28T14:43:24.581Z,107.76
2022-09-28T14:58:34.031Z,107.71
2022-09-28T15:13:41.132Z,106.80
2022-09-28T15:28:47.511Z,107.50
2022-09-28T15:44:08.788Z,107.30
2022-09-28T15:59:28.062Z,107.14
2022-09-28T16:14:34.032Z,106.07
2022-09-28T16:29:41.539Z,107.59
2022-09-28T16:44:47.095Z,107.25
2022-09-28T16:59:52.937Z,107.79
2022-09-28T17:15:00.696Z,108.04
2022-09-28T17:30:08.082Z,108.47
2022-09-28T17:45:13.964Z,108.66
2022-09-28T18:00:19.979Z,108.48
2022-09-28T18:15:25.898Z,108.29
2022-09-28T18:30:31.660Z,108.70
2022-09-28T18:45:37.863Z,109.00
2022-09-28T19:00:44.696Z,108.73
2022-09-28T19:15:50.511Z,109.07
2022-09-28T19:31:00.177Z,108.81
2022-09-28T19:46:08.724Z,109.04
2022-09-28T20:01:14.662Z,109.10
2022-09-28T20:16:24.781Z,109.36
2022-09-28T20:31:30.455Z,109.68
2022-09-28T20:46:37.086Z,109.90
2022-09-28T21:01:43.211Z,110.00
2022-09-28T21:16:48.841Z,110.05
2022-09-28T21:31:54.633Z,110.23
2022-09-28T21:47:00.377Z,110.15
2022-09-28T22:02:07.626Z,109.75
2022-09-28T22:17:13.250Z,109.81
2022-09-28T22:32:18.738Z,110.26
2022-09-28T22:47:24.322Z,110.28
2022-09-28T23:02:29.975Z,109.86
2022-09-28T23:17:35.736Z,109.90
2022-09-28T23:32:41.257Z,110.24
2022-09-28T23:47:46.795Z,110.02
